createdAt,value
2018-07-12T00:00:51.074Z,94564.02
2018-07-12T00:15:48.849Z,94573.34
2018-07-12T00:30:49.237Z,94577.90
2018-07-12T00:45:49.447Z,94571.59
2018-07-12T01:00:49.370Z,94584.75
2018-07-12T01:15:49.379Z,94573.62
2018-07-12T01:30:49.311Z,94574.95
2018-07-12T01:45:49.796Z,94570.90
2018-07-12T02:00:49.687Z,94569.86
2018-07-12T02:15:49.468Z,94574.63
2018-07-12T02:30:49.632Z,94581.11
2018-07-12T02:45:51.070Z,94575.09
2018-07-12T03:00:49.022Z,94578.52
2018-07-12T03:15:48.845Z,94575.41
2018-07-12T03:30:48.789Z,94572.83
2018-07-12T03:45:49.194Z,94575.32
2018-07-12T04:00:49.379Z,94583.36
2018-07-12T04:15:49.361Z,94593.50
2018-07-12T04:30:48.841Z,94591.39
2018-07-12T04:45:49.793Z,94603.00
2018-07-12T05:00:49.744Z,94603.75
2018-07-12T05:15:50.205Z,94610.55
2018-07-12T05:30:49.708Z,94615.69
2018-07-12T05:45:50.666Z,94638.10
2018-07-12T06:00:51.038Z,94632.11
2018-07-12T06:15:50.414Z,94634.64
2018-07-12T06:30:50.322Z,94642.76
2018-07-12T06:45:50.878Z,94637.73
2018-07-12T07:00:50.798Z,94640.05
2018-07-12T07:15:50.712Z,94630.00
2018-07-12T07:30:50.694Z,94631.22
2018-07-12T07:45:51.107Z,94633.63
2018-07-12T09:30:50.346Z,94619.70
2018-07-12T09:45:50.793Z,94610.54
2018-07-12T10:00:55.906Z,94594.67
2018-07-12T10:30:50.678Z,94582.50
2018-07-12T10:45:53.186Z,94581.58
2018-07-12T11:30:50.972Z,94552.16
2018-07-12T12:15:50.893Z,94527.87
2018-07-12T12:45:52.808Z,94518.64
2018-07-12T13:00:50.708Z,94507.39
2018-07-12T13:15:52.771Z,94508.38
2018-07-12T13:30:50.033Z,94514.62
2018-07-12T13:45:54.266Z,94523.63
2018-07-12T14:00:53.071Z,94531.34
2018-07-12T14:15:51.052Z,94530.60
2018-07-12T14:30:51.121Z,94538.22
2018-07-12T14:45:50.454Z,94523.33
2018-07-12T15:00:50.513Z,94512.23
2018-07-12T15:15:50.511Z,94499.58
2018-07-12T15:30:50.422Z,94506.36
2018-07-12T15:45:50.858Z,94493.03
2018-07-12T16:00:50.834Z,94487.61
2018-07-12T16:15:51.201Z,94492.70
2018-07-12T16:30:50.721Z,94499.06
2018-07-12T16:45:53.285Z,94493.14
2018-07-12T17:00:51.708Z,94504.91
2018-07-12T17:15:51.197Z,94507.69
2018-07-12T17:30:51.132Z,94522.22
2018-07-12T17:45:50.585Z,94528.51
2018-07-12T18:00:50.559Z,94538.94
2018-07-12T18:15:50.397Z,94544.17
2018-07-12T18:30:51.184Z,94554.78
2018-07-12T18:45:52.280Z,94565.55
2018-07-12T19:00:51.019Z,94584.75
2018-07-12T19:15:52.430Z,94595.52
2018-07-12T19:30:49.967Z,94592.06
2018-07-12T19:45:50.089Z,94601.65
2018-07-12T20:00:50.376Z,94607.00
2018-07-12T20:15:50.591Z,94609.12
2018-07-12T20:30:51.079Z,94610.25
2018-07-12T20:45:50.492Z,94621.38
2018-07-12T21:00:50.668Z,94627.11
2018-07-12T21:15:52.446Z,94637.64
2018-07-12T21:30:50.885Z,94639.19
2018-07-12T21:45:51.273Z,94636.07
2018-07-12T22:00:51.017Z,94638.58
2018-07-12T22:15:51.218Z,94638.36
2018-07-12T22:30:51.229Z,94632.34
2018-07-12T22:45:50.356Z,94637.13
2018-07-12T23:00:52.326Z,94636.55
2018-07-12T23:15:50.369Z,94632.69
2018-07-12T23:30:50.559Z,94632.47
2018-07-12T23:45:50.626Z,94624.23
